createdAt,value
2023-03-11T11:26:31.471Z,98670.89
2023-03-11T11:28:35.879Z,98677.65
2023-03-11T11:30:40.570Z,98666.13
2023-03-11T11:32:45.641Z,98674.39
2023-03-11T11:34:50.555Z,98673.65
2023-03-11T11:36:55.063Z,98684.95
2023-03-11T11:38:59.579Z,98689.06
2023-03-11T11:41:03.970Z,98685.81
2023-03-11T11:43:08.551Z,98697.95
2023-03-11T11:45:13.192Z,98700.83
2023-03-11T11:47:17.806Z,98698.66
2023-03-11T11:49:22.299Z,98709.54
2023-03-11T11:51:26.870Z,98695.36
2023-03-11T11:53:31.364Z,98704.09
2023-03-11T11:55:35.886Z,98709.42
2023-03-11T11:57:40.253Z,98717.8
2023-03-11T11:59:45.210Z,98727
2023-03-11T12:01:49.929Z,98738.2
2023-03-11T12:03:54.397Z,98742.05
2023-03-11T12:05:59.398Z,98741.17
2023-03-11T12:08:03.999Z,98743.84
2023-03-11T12:10:24.182Z,98748.33
2023-03-11T12:12:28.791Z,98753.13
2023-03-11T12:14:33.354Z,98745.72
2023-03-11T12:16:37.772Z,98745.98
2023-03-11T12:18:42.135Z,98756.45
2023-03-11T12:20:46.705Z,98757.97
2023-03-11T12:22:51.263Z,98752.05
2023-03-11T12:24:55.766Z,98762.42
2023-03-11T12:27:00.274Z,98771.52
2023-03-11T12:29:04.813Z,98771
2023-03-11T12:31:09.367Z,98771.22
2023-03-11T12:33:13.835Z,98777.08
2023-03-11T12:35:18.333Z,98780.22
2023-03-11T12:37:22.746Z,98767.97
2023-03-11T12:39:27.208Z,98778.44
2023-03-11T12:41:31.617Z,98776.63
2023-03-11T12:43:36.261Z,98785.51
2023-03-11T12:45:41.039Z,98800.83
2023-03-11T12:47:45.399Z,98798.02
2023-03-11T12:49:49.755Z,98801.67
2023-03-11T12:51:54.089Z,98813.05
2023-03-11T12:53:58.566Z,98845.86
2023-03-11T12:56:02.986Z,98845.11
2023-03-11T12:58:07.444Z,98849.66
2023-03-11T13:00:11.999Z,98849.49
2023-03-11T13:02:17.331Z,98856.67
2023-03-11T13:04:21.926Z,98858.44
2023-03-11T13:06:26.311Z,98863.67
2023-03-11T13:08:31.138Z,98859.7
2023-03-11T13:10:35.875Z,98879.91
2023-03-11T13:12:40.558Z,98870.98
2023-03-11T13:14:45.980Z,98883.22
2023-03-11T13:16:50.642Z,98883.55
2023-03-11T13:18:55.244Z,98891.44
2023-03-11T13:20:59.768Z,98886.69
2023-03-11T13:23:04.482Z,98890.22
2023-03-11T13:25:09.384Z,98893.57
2023-03-11T13:27:13.894Z,98892.09
2023-03-11T13:29:18.576Z,98901.31
2023-03-11T13:31:23.850Z,98908.02
2023-03-11T13:33:28.564Z,98908.65
2023-03-11T13:35:33.411Z,98916.45
2023-03-11T13:37:38.148Z,98926.88
2023-03-11T13:39:42.995Z,98929.61
2023-03-11T13:41:47.763Z,98928.5
2023-03-11T13:43:52.157Z,98936.39
2023-03-11T13:45:56.654Z,98933.59
2023-03-11T13:48:01.234Z,98934.86
2023-03-11T13:50:05.744Z,98932.92
2023-03-11T13:52:10.357Z,98959.41
2023-03-11T13:54:14.740Z,98954.78
2023-03-11T13:56:19.184Z,98953.23
2023-03-11T13:58:23.773Z,98965.14
2023-03-11T14:00:28.214Z,98961.23
2023-03-11T14:02:32.617Z,98959.21
2023-03-11T14:04:37.294Z,98969.64
2023-03-11T14:06:41.800Z,98980.62
2023-03-11T14:08:46.272Z,98974.46
2023-03-11T14:10:50.722Z,98989.69
2023-03-11T14:12:55.443Z,98981.7
2023-03-11T14:14:59.996Z,99006.79
2023-03-11T14:17:04.495Z,99001.29
2023-03-11T14:19:08.963Z,99003.72
2023-03-11T14:21:13.407Z,99008.09
2023-03-11T14:23:17.968Z,99012.28
2023-03-11T14:25:22.572Z,99017.52
2023-03-11T14:27:27.062Z,99021.43
2023-03-11T14:29:31.602Z,99028.03
2023-03-11T14:31:36.382Z,99030.56
2023-03-11T14:33:41.343Z,99028.21
2023-03-11T14:35:46.042Z,99034.69
2023-03-11T14:37:50.567Z,99042.22
2023-03-11T14:39:55.336Z,99043.54
2023-03-11T14:42:00.983Z,99048.2
2023-03-11T14:44:05.493Z,99055.67
2023-03-11T14:46:10.443Z,99050.88
2023-03-11T14:48:16.086Z,99061.92
2023-03-11T14:50:21.129Z,99062.89
2023-03-11T14:52:26.880Z,99056.47
2023-03-11T14:54:31.391Z,99068.83
2023-03-11T14:56:35.855Z,99068.86
2023-03-11T14:58:40.773Z,99064.13
2023-03-11T15:00:45.582Z,99064.81
2023-03-11T15:02:50.364Z,99073.73
2023-03-11T15:04:55.318Z,99091.22
2023-03-11T15:07:02.772Z,99068.16
2023-03-11T15:09:07.558Z,99075.73
2023-03-11T15:11:12.477Z,99078.77
2023-03-11T15:13:17.351Z,99075.67
2023-03-11T15:15:21.845Z,99084.68
2023-03-11T15:17:43.683Z,99083.91
2023-03-11T15:19:50.068Z,99089.6
2023-03-11T15:21:54.901Z,99087.97
2023-03-11T15:23:59.401Z,99091.34
2023-03-11T15:26:03.784Z,99097.8
2023-03-11T15:28:08.403Z,99100.97
2023-03-11T15:30:13.055Z,99103.59
2023-03-11T15:32:17.703Z,99106.23
2023-03-11T15:34:23.697Z,99104.77
2023-03-11T15:36:28.495Z,99107.11
2023-03-11T15:38:33.346Z,99121
2023-03-11T15:40:46.866Z,99121.68
2023-03-11T15:42:52.777Z,99125.52
2023-03-11T15:44:57.487Z,99139.16
2023-03-11T15:47:02.194Z,99141.41
2023-03-11T15:49:06.671Z,99147.55
2023-03-11T15:51:14.207Z,99154.88
2023-03-11T15:53:18.747Z,99154.7
2023-03-11T15:55:24.100Z,99162.45
2023-03-11T15:57:28.628Z,99164.8
2023-03-11T15:59:33.197Z,99172.63
2023-03-11T16:01:39.098Z,99172.44
2023-03-11T16:03:44.047Z,99180.22
2023-03-11T16:05:49.058Z,99176.39
2023-03-11T16:07:53.552Z,99182.66
2023-03-11T16:09:58.114Z,99191.93
2023-03-11T16:12:03.313Z,99188.69
2023-03-11T16:14:07.926Z,99192.11
2023-03-11T16:16:12.521Z,99197.96
2023-03-11T16:18:18.282Z,99207.94
2023-03-11T16:20:23.265Z,99214.59
2023-03-11T16:22:28.169Z,99220.45
2023-03-11T16:24:32.848Z,99223.95
2023-03-11T16:26:37.229Z,99226.73
2023-03-11T16:28:44.279Z,99233.11
2023-03-11T16:30:52.130Z,99227.45
2023-03-11T16:32:57.456Z,99235
2023-03-11T16:35:02.032Z,99230.48
2023-03-11T16:37:06.684Z,99233.86
2023-03-11T16:39:14.795Z,99242.58
2023-03-11T16:41:19.410Z,99247.14
2023-03-11T16:43:24.553Z,99251.86
2023-03-11T16:45:31.421Z,99252.94
2023-03-11T16:47:36.893Z,99255.55
2023-03-11T16:49:43.654Z,99261.22
2023-03-11T16:51:48.517Z,99263.5
2023-03-11T16:53:53.649Z,99262.64
2023-03-11T16:55:58.673Z,99265.61
2023-03-11T16:58:03.396Z,99269.97
2023-03-11T17:00:08.293Z,99276.34
2023-03-11T17:02:13.305Z,99278.53
2023-03-11T17:04:18.791Z,99289.68
2023-03-11T17:06:23.441Z,99295.89
2023-03-11T17:08:27.998Z,99298.19
2023-03-11T17:10:33.705Z,99307.72
2023-03-11T17:12:40.390Z,99308.34
2023-03-11T17:14:45.291Z,99310.09
2023-03-11T17:16:50.846Z,99314.55
2023-03-11T17:18:55.818Z,99319.08
2023-03-11T17:21:00.327Z,99321.6
2023-03-11T17:23:06.770Z,99328.2
2023-03-11T17:25:14.672Z,99330.77
2023-03-11T17:27:19.568Z,99337.79
2023-03-11T17:29:24.560Z,99327.02
2023-03-11T17:31:29.397Z,99329.03
2023-03-11T17:33:34.485Z,99328.7
2023-03-11T17:35:40.352Z,99332.34
2023-03-11T17:37:45.139Z,99336.47
2023-03-11T17:39:49.871Z,99341.89
2023-03-11T17:41:55.508Z,99345.05
2023-03-11T17:43:59.993Z,99348.08
2023-03-11T17:46:04.672Z,99352.17
2023-03-11T17:48:10.334Z,99360.95
2023-03-11T17:50:14.854Z,99360.44
2023-03-11T17:52:19.492Z,99365.25
2023-03-11T17:54:24.142Z,99369.26
2023-03-11T17:56:28.702Z,99366.45
2023-03-11T17:58:33.183Z,99368.75
2023-03-11T18:00:37.680Z,99370.38
2023-03-11T18:02:44.722Z,99377.86
2023-03-11T18:04:49.313Z,99386.45
2023-03-11T18:06:54.325Z,99394.25
2023-03-11T18:08:58.905Z,99393.98
2023-03-11T18:11:03.871Z,99399.61
2023-03-11T18:13:09.204Z,99396.58
2023-03-11T18:15:14.135Z,99397.19
2023-03-11T18:17:19.669Z,99400.84
2023-03-11T18:19:24.281Z,99402.49
2023-03-11T18:21:29.394Z,99405.69
2023-03-11T18:23:34.074Z,99410.56
2023-03-11T18:25:38.658Z,99412.84
2023-03-11T18:27:44.105Z,99415.42
2023-03-11T18:29:49.149Z,99418.16
2023-03-11T18:31:54.082Z,99420.77
2023-03-11T18:33:59.186Z,99421.42
2023-03-11T18:36:05.652Z,99429.45
2023-03-11T18:38:10.663Z,99431.64
2023-03-11T18:40:16.286Z,99436.89
2023-03-11T18:42:23.887Z,99434.67
2023-03-11T18:44:28.741Z,99438.03
2023-03-11T18:46:33.639Z,99442.73
2023-03-11T18:48:38.398Z,99441.09
2023-03-11T18:50:43.055Z,99446.53
2023-03-11T18:52:47.588Z,99448.98
2023-03-11T18:54:52.293Z,99452.47
2023-03-11T18:56:56.621Z,99456.61
2023-03-11T18:59:01.621Z,99465.19
2023-03-11T19:01:06.491Z,99460.73
2023-03-11T19:03:11.456Z,99464.5
2023-03-11T19:05:16.268Z,99469.51
2023-03-11T19:07:21.246Z,99469.77
2023-03-11T19:09:26.137Z,99469.66
2023-03-11T19:11:31.698Z,99470.14
2023-03-11T19:13:48.233Z,99474.8
2023-03-11T19:15:54.462Z,99478.47
2023-03-11T19:18:07.852Z,99478.23
2023-03-11T19:20:12.456Z,99483.84
2023-03-11T19:22:17.343Z,99487.16
2023-03-11T19:24:21.824Z,99488.36
2023-03-11T19:26:46.143Z,99495.2
2023-03-11T19:28:50.793Z,99494.23
2023-03-11T19:30:55.535Z,99494.69
2023-03-11T19:33:00.258Z,99499.15
2023-03-11T19:35:05.978Z,99502.15
2023-03-11T19:37:11.769Z,99502.83
2023-03-11T19:39:16.088Z,99501.18
2023-03-11T19:41:20.678Z,99509.12
2023-03-11T19:43:25.200Z,99509.23
2023-03-11T19:45:31.618Z,99516.97
2023-03-11T19:47:36.284Z,99514.7
2023-03-11T19:49:40.987Z,99509.36
2023-03-11T19:51:51.698Z,99516.72
2023-03-11T19:53:56.452Z,99517.01
2023-03-11T19:56:01.602Z,99522.19
2023-03-11T19:58:06.153Z,99518.7
2023-03-11T20:00:10.849Z,99519.25
2023-03-11T20:02:15.680Z,99514.65
2023-03-11T20:04:22.020Z,99515.06
2023-03-11T20:06:26.968Z,99520.36
2023-03-11T20:08:31.727Z,99522.02
2023-03-11T20:10:36.368Z,99535.97
2023-03-11T20:13:01.361Z,99529.94
2023-03-11T20:15:06.730Z,99533.39
2023-03-11T20:17:11.289Z,99530.41
2023-03-11T20:19:15.842Z,99538.84
2023-03-11T20:21:21.403Z,99534.41
2023-03-11T20:23:26.543Z,99539.33
2023-03-11T20:25:31.406Z,99542.7
2023-03-11T20:27:35.993Z,99539.3
2023-03-11T20:29:40.531Z,99541.46
2023-03-11T20:31:45.728Z,99542.69
2023-03-11T20:33:50.518Z,99546.38
2023-03-11T20:35:56.140Z,99544.69
2023-03-11T20:38:01.956Z,99551.75
2023-03-11T20:40:06.929Z,99556.01
2023-03-11T20:42:14.923Z,99558.25
2023-03-11T20:44:19.642Z,99558.65
2023-03-11T20:46:24.794Z,99561.83
2023-03-11T20:48:29.812Z,99556.75
2023-03-11T20:50:34.420Z,99553.66
2023-03-11T20:52:39.405Z,99558.21
2023-03-11T20:54:44.171Z,99555.33
2023-03-11T20:56:50.220Z,99558.14
2023-03-11T20:58:55.043Z,99556.32
2023-03-11T21:01:00.076Z,99558.31
2023-03-11T21:03:05.972Z,99556.11
2023-03-11T21:05:11.366Z,99551.98
2023-03-11T21:07:16.004Z,99553.51
2023-03-11T21:09:20.837Z,99551.42
2023-03-11T21:11:25.493Z,99554.48
2023-03-11T21:13:30.140Z,99552.47
2023-03-11T21:15:34.562Z,99552.56
2023-03-11T21:17:39.228Z,99551.38
2023-03-11T21:19:44.056Z,99542.55
2023-03-11T21:21:48.762Z,99549.73
2023-03-11T21:23:53.480Z,99545.27
2023-03-11T21:25:58.082Z,99545.41
2023-03-11T21:28:02.639Z,99547.41
2023-03-11T21:30:07.162Z,99545.42
2023-03-11T21:32:11.742Z,99548.56
2023-03-11T21:34:16.926Z,99551.32
2023-03-11T21:36:21.826Z,99548.08
2023-03-11T21:38:26.796Z,99545.36
2023-03-11T21:40:31.268Z,99553.52
2023-03-11T21:42:35.989Z,99548.95
2023-03-11T21:44:40.683Z,99551.15
2023-03-11T21:46:45.449Z,99549.8
2023-03-11T21:48:50.293Z,99547.98
2023-03-11T21:50:55.149Z,99547.69
2023-03-11T21:52:59.696Z,99547.81
2023-03-11T21:55:04.372Z,99542.53
2023-03-11T21:57:09.360Z,99545.55
2023-03-11T21:59:14.324Z,99549.66
2023-03-11T22:01:18.915Z,99546.73
2023-03-11T22:03:23.806Z,99567.83
2023-03-11T22:05:28.785Z,99564.8
2023-03-11T22:07:33.148Z,99562.17
2023-03-11T22:09:37.968Z,99568.25
2023-03-11T22:11:42.988Z,99565.16
2023-03-11T22:13:47.536Z,99570.61
2023-03-11T22:15:52.207Z,99573.37
2023-03-11T22:17:57.193Z,99570.8
2023-03-11T22:20:01.960Z,99569.8
2023-03-11T22:22:06.581Z,99574.67
2023-03-11T22:24:11.084Z,99572.98
2023-03-11T22:26:15.447Z,99567.68
2023-03-11T22:28:19.972Z,99575.67
2023-03-11T22:30:24.420Z,99571.69
2023-03-11T22:32:28.922Z,99574.16
2023-03-11T22:34:33.395Z,99579.7
2023-03-11T22:36:37.788Z,99581.8
2023-03-11T22:38:43.219Z,99581.84
2023-03-11T22:40:47.730Z,99587.36
2023-03-11T22:42:52.089Z,99588.28
2023-03-11T22:44:56.480Z,99585.36
2023-03-11T22:47:00.960Z,99587.95
2023-03-11T22:49:05.641Z,99591.12
2023-03-11T22:51:10.024Z,99592.65
2023-03-11T22:53:14.590Z,99590.13
2023-03-11T22:55:19.072Z,99592.17
2023-03-11T22:57:23.500Z,99594.75
2023-03-11T22:59:27.837Z,99597.92
2023-03-11T23:01:32.184Z,99600.22
2023-03-11T23:03:36.858Z,99603.56
2023-03-11T23:05:42.137Z,99609.41
2023-03-11T23:07:46.674Z,99608.92
2023-03-11T23:09:51.087Z,99608.48
2023-03-11T23:11:55.463Z,99608.77
2023-03-11T23:13:59.844Z,99614.02
2023-03-11T23:16:04.232Z,99616
2023-03-11T23:18:08.641Z,99611.41
2023-03-11T23:20:13.172Z,99612.28
2023-03-11T23:22:17.564Z,99617.2
2023-03-11T23:24:21.963Z,99619.22
2023-03-11T23:26:26.319Z,99617.41
2023-03-11T23:28:30.724Z,99621.09
2023-03-11T23:30:35.323Z,99626.72
2023-03-11T23:32:39.931Z,99627.7
2023-03-11T23:34:44.519Z,99627.45
2023-03-11T23:36:48.943Z,99624.11
2023-03-11T23:38:53.350Z,99628.84
2023-03-11T23:40:57.877Z,99626.44
2023-03-11T23:43:02.212Z,99626.95
2023-03-11T23:45:06.566Z,99631.86
2023-03-11T23:47:10.968Z,99624.83
2023-03-11T23:49:15.350Z,99625.47
2023-03-11T23:51:19.713Z,99628.16
2023-03-11T23:53:24.082Z,99623.84
2023-03-11T23:55:28.603Z,99628.41
2023-03-11T23:57:32.990Z,99628.45
2023-03-11T23:59:37.347Z,99619.64
